TimeCST,TemperatureF,Dew PointF,Humidity,Sea Level PressureIn,VisibilityMPH,Wind Direction,Wind SpeedMPH,Gust SpeedMPH,PrecipitationIn,Events,Conditions,WindDirDegrees,DateUTC
12:53 AM,26.1,19.9,78,30.32,10.0,NW,11.5,-,N/A,,Overcast,320,2013-01-03 06:53:00
1:53 AM,26.1,19.9,78,30.32,10.0,NW,10.4,-,N/A,,Overcast,320,2013-01-03 07:53:00
2:24 AM,26.6,21.2,80,30.26,10.0,NNW,10.4,-,0.00,,Overcast,330,2013-01-03 08:24:00
2:41 AM,26.6,21.2,80,30.27,8.0,NNW,11.5,-,0.00,,Overcast,330,2013-01-03 08:41:00
2:53 AM,26.1,23.0,88,30.35,9.0,NNW,10.4,-,0.00,,Overcast,330,2013-01-03 08:53:00
3:26 AM,26.6,23.0,86,30.28,7.0,NW,9.2,-,0.00,,Overcast,310,2013-01-03 09:26:00
3:53 AM,26.1,23.0,88,30.36,7.0,NW,10.4,-,0.00,Snow,Light Snow,310,2013-01-03 09:53:00
4:06 AM,26.6,21.2,80,30.28,9.0,NW,10.4,-,0.00,,Overcast,320,2013-01-03 10:06:00
4:35 AM,24.8,21.2,86,30.29,10.0,NW,11.5,-,0.00,,Overcast,320,2013-01-03 10:35:00
4:53 AM,25.0,21.9,88,30.36,10.0,NW,11.5,-,0.00,,Overcast,320,2013-01-03 10:53:00
5:03 AM,24.8,21.2,86,30.29,10.0,NW,13.8,-,N/A,,Overcast,320,2013-01-03 11:03:00
5:53 AM,25.0,19.9,81,30.38,10.0,NNW,11.5,-,N/A,,Overcast,330,2013-01-03 11:53:00
6:11 AM,24.8,21.2,86,30.30,10.0,NW,8.1,-,N/A,,Overcast,310,2013-01-03 12:11:00
6:53 AM,24.1,19.0,81,30.40,10.0,NW,9.2,-,N/A,,Overcast,320,2013-01-03 12:53:00
7:53 AM,16.0,12.9,88,30.44,10.0,NW,5.8,-,N/A,,Clear,310,2013-01-03 13:53:00
8:53 AM,17.1,12.0,81,30.44,10.0,NW,5.8,-,N/A,,Clear,320,2013-01-03 14:53:00
9:53 AM,19.9,14.0,78,30.45,10.0,NW,5.8,-,N/A,,Clear,310,2013-01-03 15:53:00
10:53 AM,24.1,15.1,69,30.45,10.0,NNW,8.1,-,N/A,,Mostly Cloudy,330,2013-01-03 16:53:00
11:53 AM,27.0,15.1,61,30.42,10.0,WNW,8.1,-,N/A,,Clear,300,2013-01-03 17:53:00
12:53 PM,28.0,15.1,58,30.38,10.0,WNW,10.4,-,N/A,,Mostly Cloudy,300,2013-01-03 18:53:00
1:53 PM,30.0,16.0,56,30.36,10.0,NW,9.2,-,N/A,,Mostly Cloudy,310,2013-01-03 19:53:00
2:53 PM,28.9,14.0,54,30.34,10.0,West,8.1,-,N/A,,Clear,270,2013-01-03 20:53:00
3:53 PM,30.0,15.1,54,30.34,10.0,WSW,11.5,-,N/A,,Clear,240,2013-01-03 21:53:00
4:53 PM,26.1,15.1,63,30.35,10.0,West,3.5,-,N/A,,Clear,260,2013-01-03 22:53:00
5:53 PM,18.0,10.9,74,30.36,10.0,South,5.8,-,N/A,,Clear,170,2013-01-03 23:53:00
6:53 PM,16.0,10.0,77,30.38,10.0,SSW,5.8,-,N/A,,Clear,210,2013-01-04 00:53:00
7:53 PM,14.0,10.0,84,30.38,10.0,SW,6.9,-,N/A,,Clear,220,2013-01-04 01:53:00
8:53 PM,16.0,12.0,84,30.36,10.0,SSW,8.1,-,N/A,,Clear,210,2013-01-04 02:53:00
9:53 PM,14.0,10.0,84,30.35,10.0,SSW,6.9,-,N/A,,Clear,210,2013-01-04 03:53:00
10:53 PM,15.1,10.9,84,30.34,10.0,SSW,9.2,-,N/A,,Clear,210,2013-01-04 04:53:00
11:53 PM,12.9,9.0,84,30.33,10.0,SSW,4.6,-,N/A,,Clear,200,2013-01-04 05:53:00